Ubon Ratchathani, Thailand
Current Conditions -  °F | °C
As of 8:00 AM on Friday 28 Nov 2014 (Local Time) from VTUU Reporting Station
Clear Clear  
Wind Chill: 82°   Ceiling: Unl
Heat Index: 88°   Visibility: 6mi
Dew Point: 73°   Wind: 2mph
Humidity: 74%   Direction: 330°NNW
Pressure: 29.85"   Gusts: NA
Location:  15.25°N, 104.83°E
Report Text: VTUU 280100Z 33002KT 9999 NSC 28/23 Q1011 A2988NOSIG
Loading
Personal Weather Stations






























Interactive Weather Map New forecast layout! Learn more

10-Day Weather Forecast

Advertisements
Track Severe Weather on mobile